sensor_id;sensor_type;location;lat;lon;timestamp;P1;durP1;ratioP1;P2;durP2;ratioP2
11018;SDS011;5563;52.296;6.806;2023-09-08T00:02:12;5.65;;;5.18;;
11018;SDS011;5563;52.296;6.806;2023-09-08T00:04:39;5.78;;;5.28;;
11018;SDS011;5563;52.296;6.806;2023-09-08T00:07:06;6.18;;;5.57;;
11018;SDS011;5563;52.296;6.806;2023-09-08T00:09:39;5.97;;;5.38;;
11018;SDS011;5563;52.296;6.806;2023-09-08T00:12:12;6.43;;;5.70;;
11018;SDS011;5563;52.296;6.806;2023-09-08T00:14:53;6.82;;;6.15;;
11018;SDS011;5563;52.296;6.806;2023-09-08T00:17:27;6.03;;;5.53;;
11018;SDS011;5563;52.296;6.806;2023-09-08T00:20:00;5.90;;;5.40;;
11018;SDS011;5563;52.296;6.806;2023-09-08T00:22:27;5.72;;;5.22;;
11018;SDS011;5563;52.296;6.806;2023-09-08T00:25:00;8.15;;;5.80;;
11018;SDS011;5563;52.296;6.806;2023-09-08T00:27:27;6.22;;;5.57;;
11018;SDS011;5563;52.296;6.806;2023-09-08T00:30:00;6.20;;;5.70;;
11018;SDS011;5563;52.296;6.806;2023-09-08T00:32:28;6.47;;;5.72;;
11018;SDS011;5563;52.296;6.806;2023-09-08T00:35:02;6.10;;;5.50;;
11018;SDS011;5563;52.296;6.806;2023-09-08T00:37:35;6.75;;;6.15;;
11018;SDS011;5563;52.296;6.806;2023-09-08T00:40:03;6.72;;;5.90;;
11018;SDS011;5563;52.296;6.806;2023-09-08T00:42:36;7.75;;;6.05;;
11018;SDS011;5563;52.296;6.806;2023-09-08T00:45:03;6.60;;;6.00;;
11018;SDS011;5563;52.296;6.806;2023-09-08T00:47:36;7.32;;;6.72;;
11018;SDS011;5563;52.296;6.806;2023-09-08T00:50:03;8.38;;;6.07;;
11018;SDS011;5563;52.296;6.806;2023-09-08T00:52:37;6.40;;;5.88;;
11018;SDS011;5563;52.296;6.806;2023-09-08T00:55:04;6.53;;;5.93;;
11018;SDS011;5563;52.296;6.806;2023-09-08T00:57:38;6.82;;;6.22;;
11018;SDS011;5563;52.296;6.806;2023-09-08T01:00:05;7.10;;;6.40;;
11018;SDS011;5563;52.296;6.806;2023-09-08T01:02:39;7.38;;;6.78;;
11018;SDS011;5563;52.296;6.806;2023-09-08T01:05:12;6.95;;;6.38;;
11018;SDS011;5563;52.296;6.806;2023-09-08T01:07:47;6.85;;;6.25;;
11018;SDS011;5563;52.296;6.806;2023-09-08T01:10:21;6.82;;;6.22;;
11018;SDS011;5563;52.296;6.806;2023-09-08T01:12:48;7.93;;;6.78;;
11018;SDS011;5563;52.296;6.806;2023-09-08T01:15:22;7.90;;;7.20;;
11018;SDS011;5563;52.296;6.806;2023-09-08T01:17:55;7.47;;;6.78;;
11018;SDS011;5563;52.296;6.806;2023-09-08T01:20:46;7.20;;;6.53;;
11018;SDS011;5563;52.296;6.806;2023-09-08T01:26:57;7.70;;;6.97;;
11018;SDS011;5563;52.296;6.806;2023-09-08T01:29:31;7.63;;;6.85;;
11018;SDS011;5563;52.296;6.806;2023-09-08T01:31:59;6.15;;;5.55;;
11018;SDS011;5563;52.296;6.806;2023-09-08T01:34:34;7.43;;;6.80;;
11018;SDS011;5563;52.296;6.806;2023-09-08T01:37:03;7.78;;;6.97;;
11018;SDS011;5563;52.296;6.806;2023-09-08T01:39:36;8.13;;;7.43;;
11018;SDS011;5563;52.296;6.806;2023-09-08T01:42:03;7.53;;;6.82;;
11018;SDS011;5563;52.296;6.806;2023-09-08T01:44:36;7.22;;;6.63;;
11018;SDS011;5563;52.296;6.806;2023-09-08T01:47:09;7.97;;;7.15;;
11018;SDS011;5563;52.296;6.806;2023-09-08T01:49:36;8.15;;;7.35;;
11018;SDS011;5563;52.296;6.806;2023-09-08T01:52:09;8.35;;;7.65;;
11018;SDS011;5563;52.296;6.806;2023-09-08T01:54:36;7.90;;;7.18;;
11018;SDS011;5563;52.296;6.806;2023-09-08T01:57:09;7.65;;;6.95;;
11018;SDS011;5563;52.296;6.806;2023-09-08T01:59:36;7.72;;;7.07;;
11018;SDS011;5563;52.296;6.806;2023-09-08T02:02:10;7.95;;;7.25;;
11018;SDS011;5563;52.296;6.806;2023-09-08T02:04:37;9.13;;;8.23;;
11018;SDS011;5563;52.296;6.806;2023-09-08T02:07:10;9.75;;;8.13;;
11018;SDS011;5563;52.296;6.806;2023-09-08T02:09:37;8.93;;;8.13;;
11018;SDS011;5563;52.296;6.806;2023-09-08T02:12:10;7.90;;;7.13;;
11018;SDS011;5563;52.296;6.806;2023-09-08T02:14:50;9.43;;;7.90;;
11018;SDS011;5563;52.296;6.806;2023-09-08T02:17:24;7.95;;;7.25;;
11018;SDS011;5563;52.296;6.806;2023-09-08T02:19:51;7.97;;;7.20;;
11018;SDS011;5563;52.296;6.806;2023-09-08T02:22:24;8.38;;;7.68;;
11018;SDS011;5563;52.296;6.806;2023-09-08T02:24:51;8.95;;;8.05;;
11018;SDS011;5563;52.296;6.806;2023-09-08T02:27:24;8.75;;;7.95;;
11018;SDS011;5563;52.296;6.806;2023-09-08T02:29:57;8.35;;;7.65;;
11018;SDS011;5563;52.296;6.806;2023-09-08T02:32:30;8.88;;;7.97;;
11018;SDS011;5563;52.296;6.806;2023-09-08T02:35:03;9.35;;;8.43;;
11018;SDS011;5563;52.296;6.806;2023-09-08T02:37:30;9.07;;;8.13;;
11018;SDS011;5563;52.296;6.806;2023-09-08T02:40:04;9.65;;;8.35;;
11018;SDS011;5563;52.296;6.806;2023-09-08T02:42:32;8.93;;;8.13;;
11018;SDS011;5563;52.296;6.806;2023-09-08T02:45:06;9.82;;;8.90;;
11018;SDS011;5563;52.296;6.806;2023-09-08T02:47:33;9.23;;;8.32;;
11018;SDS011;5563;52.296;6.806;2023-09-08T02:50:00;9.40;;;8.50;;
11018;SDS011;5563;52.296;6.806;2023-09-08T02:52:33;8.50;;;7.70;;
11018;SDS011;5563;52.296;6.806;2023-09-08T02:55:00;9.18;;;8.27;;
11018;SDS011;5563;52.296;6.806;2023-09-08T02:57:33;9.38;;;8.57;;
11018;SDS011;5563;52.296;6.806;2023-09-08T03:00:00;9.75;;;8.65;;
11018;SDS011;5563;52.296;6.806;2023-09-08T03:02:33;10.07;;;9.07;;
11018;SDS011;5563;52.296;6.806;2023-09-08T03:05:01;9.70;;;8.88;;
11018;SDS011;5563;52.296;6.806;2023-09-08T03:07:35;9.23;;;8.43;;
11018;SDS011;5563;52.296;6.806;2023-09-08T03:10:04;9.30;;;8.40;;
11018;SDS011;5563;52.296;6.806;2023-09-08T03:12:37;9.75;;;8.90;;
11018;SDS011;5563;52.296;6.806;2023-09-08T03:15:04;9.85;;;8.85;;
11018;SDS011;5563;52.296;6.806;2023-09-08T03:17:45;9.52;;;8.52;;
11018;SDS011;5563;52.296;6.806;2023-09-08T03:20:12;9.45;;;8.55;;
11018;SDS011;5563;52.296;6.806;2023-09-08T03:22:46;9.75;;;8.80;;
11018;SDS011;5563;52.296;6.806;2023-09-08T03:25:14;9.88;;;9.00;;
11018;SDS011;5563;52.296;6.806;2023-09-08T03:27:47;10.15;;;9.13;;
11018;SDS011;5563;52.296;6.806;2023-09-08T03:30:20;9.45;;;8.55;;
11018;SDS011;5563;52.296;6.806;2023-09-08T03:32:47;10.55;;;9.52;;
11018;SDS011;5563;52.296;6.806;2023-09-08T03:35:21;10.68;;;9.68;;
11018;SDS011;5563;52.296;6.806;2023-09-08T03:37:47;10.00;;;9.05;;
11018;SDS011;5563;52.296;6.806;2023-09-08T03:40:20;9.32;;;8.50;;
11018;SDS011;5563;52.296;6.806;2023-09-08T03:42:47;10.05;;;9.05;;
11018;SDS011;5563;52.296;6.806;2023-09-08T03:45:20;10.38;;;8.75;;
11018;SDS011;5563;52.296;6.806;2023-09-08T03:47:47;9.93;;;9.10;;
11018;SDS011;5563;52.296;6.806;2023-09-08T03:50:21;10.65;;;9.55;;
11018;SDS011;5563;52.296;6.806;2023-09-08T03:52:47;9.98;;;9.00;;
11018;SDS011;5563;52.296;6.806;2023-09-08T03:55:20;10.07;;;9.07;;
11018;SDS011;5563;52.296;6.806;2023-09-08T03:57:47;10.15;;;9.32;;
11018;SDS011;5563;52.296;6.806;2023-09-08T04:00:14;10.52;;;9.43;;
11018;SDS011;5563;52.296;6.806;2023-09-08T04:02:54;10.77;;;9.82;;
11018;SDS011;5563;52.296;6.806;2023-09-08T04:05:22;9.98;;;9.07;;
11018;SDS011;5563;52.296;6.806;2023-09-08T04:07:54;9.77;;;8.90;;
11018;SDS011;5563;52.296;6.806;2023-09-08T04:10:21;10.27;;;9.32;;
11018;SDS011;5563;52.296;6.806;2023-09-08T04:12:54;11.02;;;9.90;;
11018;SDS011;5563;52.296;6.806;2023-09-08T04:15:28;10.60;;;9.63;;
11018;SDS011;5563;52.296;6.806;2023-09-08T04:18:01;11.02;;;10.02;;
11018;SDS011;5563;52.296;6.806;2023-09-08T04:20:29;10.30;;;9.40;;
11018;SDS011;5563;52.296;6.806;2023-09-08T04:23:01;11.32;;;9.70;;
11018;SDS011;5563;52.296;6.806;2023-09-08T04:25:28;10.32;;;9.45;;
11018;SDS011;5563;52.296;6.806;2023-09-08T04:28:02;10.02;;;9.05;;
11018;SDS011;5563;52.296;6.806;2023-09-08T04:30:29;10.85;;;9.75;;
11018;SDS011;5563;52.296;6.806;2023-09-08T04:32:56;10.20;;;8.80;;
11018;SDS011;5563;52.296;6.806;2023-09-08T04:35:29;9.70;;;8.80;;
11018;SDS011;5563;52.296;6.806;2023-09-08T04:37:56;10.30;;;9.40;;
11018;SDS011;5563;52.296;6.806;2023-09-08T04:40:30;10.70;;;9.57;;
11018;SDS011;5563;52.296;6.806;2023-09-08T04:42:57;10.75;;;9.73;;
11018;SDS011;5563;52.296;6.806;2023-09-08T04:45:30;10.77;;;9.77;;
11018;SDS011;5563;52.296;6.806;2023-09-08T04:47:58;10.82;;;9.82;;
11018;SDS011;5563;52.296;6.806;2023-09-08T04:50:31;11.15;;;10.00;;
11018;SDS011;5563;52.296;6.806;2023-09-08T04:52:57;11.50;;;10.48;;
11018;SDS011;5563;52.296;6.806;2023-09-08T04:55:30;11.43;;;10.27;;
11018;SDS011;5563;52.296;6.806;2023-09-08T04:57:57;10.48;;;9.57;;
11018;SDS011;5563;52.296;6.806;2023-09-08T05:00:30;11.15;;;10.15;;
11018;SDS011;5563;52.296;6.806;2023-09-08T05:02:57;10.95;;;9.90;;
11018;SDS011;5563;52.296;6.806;2023-09-08T05:05:31;11.05;;;10.02;;
11018;SDS011;5563;52.296;6.806;2023-09-08T05:08:05;11.88;;;10.60;;
11018;SDS011;5563;52.296;6.806;2023-09-08T05:10:31;11.93;;;10.73;;
11018;SDS011;5563;52.296;6.806;2023-09-08T05:13:05;12.35;;;10.45;;
11018;SDS011;5563;52.296;6.806;2023-09-08T05:15:48;11.38;;;10.38;;
11018;SDS011;5563;52.296;6.806;2023-09-08T05:18:21;11.57;;;10.38;;
11018;SDS011;5563;52.296;6.806;2023-09-08T05:20:50;11.00;;;10.00;;
11018;SDS011;5563;52.296;6.806;2023-09-08T05:23:23;11.65;;;10.63;;
11018;SDS011;5563;52.296;6.806;2023-09-08T05:25:50;11.35;;;10.35;;
11018;SDS011;5563;52.296;6.806;2023-09-08T05:28:24;11.95;;;10.65;;
11018;SDS011;5563;52.296;6.806;2023-09-08T05:30:51;11.35;;;10.13;;
11018;SDS011;5563;52.296;6.806;2023-09-08T05:33:25;11.57;;;10.38;;
11018;SDS011;5563;52.296;6.806;2023-09-08T05:35:58;12.10;;;10.27;;
11018;SDS011;5563;52.296;6.806;2023-09-08T05:38:24;12.25;;;10.73;;
11018;SDS011;5563;52.296;6.806;2023-09-08T05:40:59;12.75;;;10.02;;
11018;SDS011;5563;52.296;6.806;2023-09-08T05:43:32;11.43;;;10.38;;
11018;SDS011;5563;52.296;6.806;2023-09-08T05:45:59;12.45;;;11.35;;
11018;SDS011;5563;52.296;6.806;2023-09-08T05:48:33;12.38;;;11.27;;
11018;SDS011;5563;52.296;6.806;2023-09-08T05:51:00;11.20;;;10.10;;
11018;SDS011;5563;52.296;6.806;2023-09-08T05:53:34;11.50;;;10.45;;
11018;SDS011;5563;52.296;6.806;2023-09-08T05:56:09;11.45;;;10.48;;
11018;SDS011;5563;52.296;6.806;2023-09-08T05:58:36;11.60;;;10.38;;
11018;SDS011;5563;52.296;6.806;2023-09-08T06:01:10;10.65;;;9.65;;
11018;SDS011;5563;52.296;6.806;2023-09-08T06:03:36;11.73;;;10.63;;
11018;SDS011;5563;52.296;6.806;2023-09-08T06:06:10;13.52;;;12.10;;
11018;SDS011;5563;52.296;6.806;2023-09-08T06:08:37;12.10;;;10.90;;
11018;SDS011;5563;52.296;6.806;2023-09-08T06:11:10;12.30;;;11.10;;
11018;SDS011;5563;52.296;6.806;2023-09-08T06:13:38;12.82;;;10.68;;
11018;SDS011;5563;52.296;6.806;2023-09-08T06:16:12;11.32;;;10.30;;
11018;SDS011;5563;52.296;6.806;2023-09-08T06:18:45;11.35;;;10.32;;
11018;SDS011;5563;52.296;6.806;2023-09-08T06:21:18;11.45;;;10.30;;
11018;SDS011;5563;52.296;6.806;2023-09-08T06:23:45;11.65;;;10.55;;
11018;SDS011;5563;52.296;6.806;2023-09-08T06:26:19;10.30;;;9.45;;
11018;SDS011;5563;52.296;6.806;2023-09-08T06:28:45;11.18;;;10.15;;
11018;SDS011;5563;52.296;6.806;2023-09-08T06:31:19;10.80;;;9.80;;
11018;SDS011;5563;52.296;6.806;2023-09-08T06:33:45;10.63;;;9.63;;
11018;SDS011;5563;52.296;6.806;2023-09-08T06:36:19;9.95;;;9.05;;
11018;SDS011;5563;52.296;6.806;2023-09-08T06:38:52;10.10;;;9.07;;
11018;SDS011;5563;52.296;6.806;2023-09-08T06:41:25;10.38;;;9.40;;
11018;SDS011;5563;52.296;6.806;2023-09-08T06:43:53;9.52;;;8.68;;
11018;SDS011;5563;52.296;6.806;2023-09-08T06:46:27;9.23;;;8.32;;
11018;SDS011;5563;52.296;6.806;2023-09-08T06:49:00;9.50;;;8.57;;
11018;SDS011;5563;52.296;6.806;2023-09-08T06:51:32;8.68;;;7.88;;
11018;SDS011;5563;52.296;6.806;2023-09-08T06:54:06;9.40;;;8.27;;
11018;SDS011;5563;52.296;6.806;2023-09-08T06:56:32;8.75;;;7.95;;
11018;SDS011;5563;52.296;6.806;2023-09-08T06:59:06;8.00;;;7.28;;
11018;SDS011;5563;52.296;6.806;2023-09-08T07:01:32;8.35;;;7.57;;
11018;SDS011;5563;52.296;6.806;2023-09-08T07:04:06;8.48;;;7.68;;
11018;SDS011;5563;52.296;6.806;2023-09-08T07:06:40;8.48;;;7.68;;
11018;SDS011;5563;52.296;6.806;2023-09-08T07:09:10;7.78;;;7.07;;
11018;SDS011;5563;52.296;6.806;2023-09-08T07:11:42;8.15;;;7.30;;
11018;SDS011;5563;52.296;6.806;2023-09-08T07:14:09;8.18;;;7.38;;
11018;SDS011;5563;52.296;6.806;2023-09-08T07:16:49;7.63;;;6.78;;
11018;SDS011;5563;52.296;6.806;2023-09-08T07:19:23;7.05;;;6.07;;
11018;SDS011;5563;52.296;6.806;2023-09-08T07:21:56;7.40;;;6.75;;
11018;SDS011;5563;52.296;6.806;2023-09-08T07:24:28;7.47;;;6.20;;
11018;SDS011;5563;52.296;6.806;2023-09-08T07:27:02;6.65;;;6.00;;
11018;SDS011;5563;52.296;6.806;2023-09-08T07:29:29;6.78;;;6.05;;
11018;SDS011;5563;52.296;6.806;2023-09-08T07:32:01;6.55;;;5.95;;
11018;SDS011;5563;52.296;6.806;2023-09-08T07:34:29;10.55;;;6.07;;
11018;SDS011;5563;52.296;6.806;2023-09-08T07:37:03;5.30;;;4.80;;
11018;SDS011;5563;52.296;6.806;2023-09-08T07:39:30;5.82;;;5.32;;
11018;SDS011;5563;52.296;6.806;2023-09-08T07:41:58;7.07;;;6.00;;
11018;SDS011;5563;52.296;6.806;2023-09-08T07:44:32;5.82;;;5.22;;
11018;SDS011;5563;52.296;6.806;2023-09-08T07:46:59;7.50;;;5.60;;
11018;SDS011;5563;52.296;6.806;2023-09-08T07:49:35;6.18;;;5.07;;
11018;SDS011;5563;52.296;6.806;2023-09-08T07:52:09;5.80;;;5.25;;
11018;SDS011;5563;52.296;6.806;2023-09-08T07:54:42;5.45;;;5.03;;
11018;SDS011;5563;52.296;6.806;2023-09-08T07:57:16;5.32;;;4.88;;
11018;SDS011;5563;52.296;6.806;2023-09-08T07:59:48;5.50;;;5.00;;
11018;SDS011;5563;52.296;6.806;2023-09-08T08:02:15;9.48;;;5.72;;
11018;SDS011;5563;52.296;6.806;2023-09-08T08:04:49;5.25;;;4.75;;
11018;SDS011;5563;52.296;6.806;2023-09-08T08:07:22;5.65;;;4.80;;
11018;SDS011;5563;52.296;6.806;2023-09-08T08:09:56;5.35;;;4.85;;
11018;SDS011;5563;52.296;6.806;2023-09-08T08:12:22;5.22;;;4.82;;
11018;SDS011;5563;52.296;6.806;2023-09-08T08:14:59;5.40;;;4.90;;
11018;SDS011;5563;52.296;6.806;2023-09-08T08:17:32;5.38;;;4.72;;
11018;SDS011;5563;52.296;6.806;2023-09-08T08:20:06;5.38;;;4.78;;
11018;SDS011;5563;52.296;6.806;2023-09-08T08:22:43;5.00;;;4.50;;
11018;SDS011;5563;52.296;6.806;2023-09-08T08:25:13;5.10;;;4.70;;
11018;SDS011;5563;52.296;6.806;2023-09-08T08:27:47;5.45;;;4.93;;
11018;SDS011;5563;52.296;6.806;2023-09-08T08:30:13;5.25;;;4.75;;
11018;SDS011;5563;52.296;6.806;2023-09-08T08:32:47;4.93;;;4.47;;
11018;SDS011;5563;52.296;6.806;2023-09-08T08:35:14;4.97;;;4.57;;
11018;SDS011;5563;52.296;6.806;2023-09-08T08:37:47;5.38;;;4.88;;
11018;SDS011;5563;52.296;6.806;2023-09-08T08:40:14;6.38;;;4.80;;
11018;SDS011;5563;52.296;6.806;2023-09-08T08:42:48;6.22;;;4.85;;
11018;SDS011;5563;52.296;6.806;2023-09-08T08:45:19;8.23;;;4.53;;
11018;SDS011;5563;52.296;6.806;2023-09-08T08:47:55;5.22;;;4.80;;
11018;SDS011;5563;52.296;6.806;2023-09-08T08:50:24;4.88;;;4.35;;
11018;SDS011;5563;52.296;6.806;2023-09-08T08:52:53;4.90;;;4.50;;
11018;SDS011;5563;52.296;6.806;2023-09-08T08:55:27;6.55;;;4.90;;
11018;SDS011;5563;52.296;6.806;2023-09-08T08:58:05;6.28;;;4.68;;
11018;SDS011;5563;52.296;6.806;2023-09-08T09:00:42;4.28;;;3.97;;
11018;SDS011;5563;52.296;6.806;2023-09-08T09:03:10;4.95;;;4.43;;
11018;SDS011;5563;52.296;6.806;2023-09-08T09:05:44;6.35;;;4.50;;
11018;SDS011;5563;52.296;6.806;2023-09-08T09:08:15;5.22;;;4.72;;
11018;SDS011;5563;52.296;6.806;2023-09-08T09:10:50;5.80;;;4.82;;
11018;SDS011;5563;52.296;6.806;2023-09-08T09:13:18;5.93;;;4.32;;
11018;SDS011;5563;52.296;6.806;2023-09-08T09:16:00;7.07;;;4.50;;
11018;SDS011;5563;52.296;6.806;2023-09-08T09:18:30;5.07;;;4.53;;
11018;SDS011;5563;52.296;6.806;2023-09-08T09:21:04;5.80;;;4.47;;
11018;SDS011;5563;52.296;6.806;2023-09-08T09:23:32;4.53;;;4.13;;
11018;SDS011;5563;52.296;6.806;2023-09-08T09:26:07;5.15;;;4.63;;
11018;SDS011;5563;52.296;6.806;2023-09-08T09:28:33;4.40;;;4.00;;
11018;SDS011;5563;52.296;6.806;2023-09-08T09:31:07;5.28;;;4.78;;
11018;SDS011;5563;52.296;6.806;2023-09-08T09:33:33;4.90;;;4.40;;
11018;SDS011;5563;52.296;6.806;2023-09-08T09:36:07;6.90;;;4.57;;
11018;SDS011;5563;52.296;6.806;2023-09-08T09:38:42;4.28;;;3.97;;
11018;SDS011;5563;52.296;6.806;2023-09-08T09:41:15;5.03;;;4.53;;
11018;SDS011;5563;52.296;6.806;2023-09-08T09:43:55;7.32;;;5.05;;
11018;SDS011;5563;52.296;6.806;2023-09-08T09:46:23;6.38;;;4.18;;
11018;SDS011;5563;52.296;6.806;2023-09-08T09:48:58;5.40;;;4.13;;
11018;SDS011;5563;52.296;6.806;2023-09-08T09:51:25;4.53;;;4.13;;
11018;SDS011;5563;52.296;6.806;2023-09-08T09:53:59;5.65;;;4.15;;
11018;SDS011;5563;52.296;6.806;2023-09-08T09:56:25;4.65;;;4.28;;
11018;SDS011;5563;52.296;6.806;2023-09-08T09:59:00;4.30;;;3.90;;
11018;SDS011;5563;52.296;6.806;2023-09-08T10:01:28;4.90;;;4.43;;
11018;SDS011;5563;52.296;6.806;2023-09-08T10:04:03;6.35;;;4.68;;
11018;SDS011;5563;52.296;6.806;2023-09-08T10:06:34;4.30;;;3.92;;
11018;SDS011;5563;52.296;6.806;2023-09-08T10:09:15;5.47;;;4.28;;
11018;SDS011;5563;52.296;6.806;2023-09-08T10:11:49;4.68;;;4.20;;
11018;SDS011;5563;52.296;6.806;2023-09-08T10:14:18;4.85;;;4.32;;
11018;SDS011;5563;52.296;6.806;2023-09-08T10:16:52;7.00;;;4.35;;
11018;SDS011;5563;52.296;6.806;2023-09-08T10:19:30;4.88;;;4.38;;
11018;SDS011;5563;52.296;6.806;2023-09-08T10:22:04;4.63;;;4.20;;
11018;SDS011;5563;52.296;6.806;2023-09-08T10:24:33;4.90;;;4.50;;
11018;SDS011;5563;52.296;6.806;2023-09-08T10:27:11;5.18;;;4.68;;
11018;SDS011;5563;52.296;6.806;2023-09-08T10:29:38;4.53;;;4.20;;
11018;SDS011;5563;52.296;6.806;2023-09-08T10:32:12;4.80;;;4.22;;
11018;SDS011;5563;52.296;6.806;2023-09-08T10:34:39;4.88;;;4.38;;
11018;SDS011;5563;52.296;6.806;2023-09-08T10:37:20;5.60;;;4.50;;
11018;SDS011;5563;52.296;6.806;2023-09-08T10:39:48;4.70;;;4.25;;
11018;SDS011;5563;52.296;6.806;2023-09-08T10:42:23;4.60;;;4.10;;
11018;SDS011;5563;52.296;6.806;2023-09-08T10:44:59;5.07;;;4.50;;
11018;SDS011;5563;52.296;6.806;2023-09-08T10:50:19;4.72;;;4.28;;
11018;SDS011;5563;52.296;6.806;2023-09-08T10:53:06;4.38;;;3.92;;
11018;SDS011;5563;52.296;6.806;2023-09-08T10:55:44;5.20;;;4.68;;
11018;SDS011;5563;52.296;6.806;2023-09-08T10:58:42;5.32;;;3.88;;
11018;SDS011;5563;52.296;6.806;2023-09-08T11:01:15;4.43;;;4.03;;
11018;SDS011;5563;52.296;6.806;2023-09-08T11:03:50;5.45;;;4.47;;
11018;SDS011;5563;52.296;6.806;2023-09-08T11:06:24;4.90;;;4.38;;
11018;SDS011;5563;52.296;6.806;2023-09-08T11:09:06;4.95;;;4.47;;
11018;SDS011;5563;52.296;6.806;2023-09-08T11:11:41;5.43;;;4.65;;
11018;SDS011;5563;52.296;6.806;2023-09-08T11:14:15;4.68;;;4.20;;
11018;SDS011;5563;52.296;6.806;2023-09-08T11:16:57;4.70;;;4.30;;
11018;SDS011;5563;52.296;6.806;2023-09-08T11:19:46;5.72;;;4.55;;
11018;SDS011;5563;52.296;6.806;2023-09-08T11:22:15;4.38;;;3.97;;
11018;SDS011;5563;52.296;6.806;2023-09-08T11:24:50;5.30;;;4.32;;
11018;SDS011;5563;52.296;6.806;2023-09-08T11:27:25;4.68;;;4.20;;
11018;SDS011;5563;52.296;6.806;2023-09-08T11:29:52;4.80;;;4.35;;
11018;SDS011;5563;52.296;6.806;2023-09-08T11:32:25;4.30;;;3.90;;
11018;SDS011;5563;52.296;6.806;2023-09-08T11:35:04;4.78;;;3.90;;
11018;SDS011;5563;52.296;6.806;2023-09-08T11:37:40;4.43;;;4.00;;
11018;SDS011;5563;52.296;6.806;2023-09-08T11:40:10;4.63;;;4.10;;
11018;SDS011;5563;52.296;6.806;2023-09-08T11:42:47;4.25;;;3.95;;
11018;SDS011;5563;52.296;6.806;2023-09-08T11:45:15;5.53;;;4.50;;
11018;SDS011;5563;52.296;6.806;2023-09-08T11:47:54;5.13;;;4.30;;
11018;SDS011;5563;52.296;6.806;2023-09-08T11:50:21;4.90;;;4.38;;
11018;SDS011;5563;52.296;6.806;2023-09-08T11:52:56;6.65;;;4.28;;
11018;SDS011;5563;52.296;6.806;2023-09-08T11:55:25;4.35;;;4.05;;
11018;SDS011;5563;52.296;6.806;2023-09-08T11:57:59;4.22;;;3.92;;
11018;SDS011;5563;52.296;6.806;2023-09-08T12:00:29;4.70;;;4.35;;
11018;SDS011;5563;52.296;6.806;2023-09-08T12:03:12;5.30;;;4.80;;
11018;SDS011;5563;52.296;6.806;2023-09-08T12:05:50;4.70;;;4.30;;
11018;SDS011;5563;52.296;6.806;2023-09-08T12:08:25;6.18;;;4.22;;
11018;SDS011;5563;52.296;6.806;2023-09-08T12:10:53;4.43;;;4.00;;
11018;SDS011;5563;52.296;6.806;2023-09-08T12:13:27;4.50;;;4.10;;
11018;SDS011;5563;52.296;6.806;2023-09-08T12:15:54;4.28;;;3.97;;
11018;SDS011;5563;52.296;6.806;2023-09-08T12:18:40;5.72;;;4.32;;
11018;SDS011;5563;52.296;6.806;2023-09-08T12:21:07;5.53;;;4.47;;
11018;SDS011;5563;52.296;6.806;2023-09-08T12:23:50;4.80;;;4.25;;
11018;SDS011;5563;52.296;6.806;2023-09-08T12:26:24;4.70;;;4.30;;
11018;SDS011;5563;52.296;6.806;2023-09-08T12:28:52;5.68;;;4.75;;
11018;SDS011;5563;52.296;6.806;2023-09-08T12:31:25;4.95;;;3.85;;
11018;SDS011;5563;52.296;6.806;2023-09-08T12:33:52;4.63;;;4.22;;
11018;SDS011;5563;52.296;6.806;2023-09-08T12:36:26;5.20;;;4.07;;
11018;SDS011;5563;52.296;6.806;2023-09-08T12:38:53;4.95;;;4.20;;
11018;SDS011;5563;52.296;6.806;2023-09-08T12:41:26;7.63;;;4.75;;
11018;SDS011;5563;52.296;6.806;2023-09-08T12:43:52;5.63;;;4.50;;
11018;SDS011;5563;52.296;6.806;2023-09-08T12:46:26;5.50;;;4.40;;
11018;SDS011;5563;52.296;6.806;2023-09-08T12:49:00;5.38;;;4.43;;
11018;SDS011;5563;52.296;6.806;2023-09-08T12:51:27;4.63;;;4.22;;
11018;SDS011;5563;52.296;6.806;2023-09-08T12:54:00;4.45;;;4.05;;
11018;SDS011;5563;52.296;6.806;2023-09-08T12:56:27;5.00;;;4.60;;
11018;SDS011;5563;52.296;6.806;2023-09-08T12:59:00;4.47;;;4.15;;
11018;SDS011;5563;52.296;6.806;2023-09-08T13:01:28;4.70;;;4.30;;
11018;SDS011;5563;52.296;6.806;2023-09-08T13:04:02;6.55;;;4.32;;
11018;SDS011;5563;52.296;6.806;2023-09-08T13:06:29;4.95;;;4.57;;
11018;SDS011;5563;52.296;6.806;2023-09-08T13:09:05;4.93;;;4.38;;
11018;SDS011;5563;52.296;6.806;2023-09-08T13:11:33;4.65;;;4.20;;
11018;SDS011;5563;52.296;6.806;2023-09-08T13:14:07;4.88;;;4.47;;
11018;SDS011;5563;52.296;6.806;2023-09-08T13:16:40;4.88;;;4.45;;
11018;SDS011;5563;52.296;6.806;2023-09-08T13:19:14;4.70;;;4.30;;
11018;SDS011;5563;52.296;6.806;2023-09-08T13:21:47;4.78;;;4.38;;
11018;SDS011;5563;52.296;6.806;2023-09-08T13:24:20;5.10;;;4.18;;
11018;SDS011;5563;52.296;6.806;2023-09-08T13:26:48;5.00;;;4.50;;
11018;SDS011;5563;52.296;6.806;2023-09-08T13:29:22;4.63;;;4.32;;
11018;SDS011;5563;52.296;6.806;2023-09-08T13:31:49;4.57;;;4.18;;
11018;SDS011;5563;52.296;6.806;2023-09-08T13:34:22;4.50;;;4.20;;
11018;SDS011;5563;52.296;6.806;2023-09-08T13:36:49;5.50;;;4.65;;
11018;SDS011;5563;52.296;6.806;2023-09-08T13:39:16;4.80;;;4.30;;
11018;SDS011;5563;52.296;6.806;2023-09-08T13:41:53;4.70;;;4.30;;
11018;SDS011;5563;52.296;6.806;2023-09-08T13:44:21;4.13;;;3.72;;
11018;SDS011;5563;52.296;6.806;2023-09-08T13:46:55;4.72;;;4.32;;
11018;SDS011;5563;52.296;6.806;2023-09-08T13:49:29;4.65;;;4.30;;
11018;SDS011;5563;52.296;6.806;2023-09-08T13:52:04;4.85;;;4.45;;
11018;SDS011;5563;52.296;6.806;2023-09-08T13:54:34;4.60;;;4.20;;
11018;SDS011;5563;52.296;6.806;2023-09-08T13:57:10;6.40;;;4.30;;
11018;SDS011;5563;52.296;6.806;2023-09-08T13:59:39;5.22;;;4.30;;
11018;SDS011;5563;52.296;6.806;2023-09-08T14:02:15;5.20;;;4.47;;
11018;SDS011;5563;52.296;6.806;2023-09-08T14:05:02;5.70;;;4.10;;
11018;SDS011;5563;52.296;6.806;2023-09-08T14:07:39;4.55;;;4.15;;
11018;SDS011;5563;52.296;6.806;2023-09-08T14:10:09;6.00;;;4.47;;
11018;SDS011;5563;52.296;6.806;2023-09-08T14:13:02;5.30;;;4.28;;
11018;SDS011;5563;52.296;6.806;2023-09-08T14:15:35;5.00;;;4.50;;
11018;SDS011;5563;52.296;6.806;2023-09-08T14:18:09;4.65;;;4.25;;
11018;SDS011;5563;52.296;6.806;2023-09-08T14:20:36;4.95;;;4.53;;
11018;SDS011;5563;52.296;6.806;2023-09-08T14:23:10;4.95;;;4.55;;
11018;SDS011;5563;52.296;6.806;2023-09-08T14:25:37;5.22;;;4.50;;
11018;SDS011;5563;52.296;6.806;2023-09-08T14:28:10;4.80;;;4.40;;
11018;SDS011;5563;52.296;6.806;2023-09-08T14:30:37;5.40;;;4.90;;
11018;SDS011;5563;52.296;6.806;2023-09-08T14:33:10;5.10;;;4.70;;
11018;SDS011;5563;52.296;6.806;2023-09-08T14:35:41;6.03;;;4.47;;
11018;SDS011;5563;52.296;6.806;2023-09-08T14:38:16;4.90;;;4.40;;
11018;SDS011;5563;52.296;6.806;2023-09-08T14:40:44;4.97;;;4.55;;
11018;SDS011;5563;52.296;6.806;2023-09-08T14:43:19;5.05;;;4.47;;
11018;SDS011;5563;52.296;6.806;2023-09-08T14:45:52;5.40;;;4.80;;
11018;SDS011;5563;52.296;6.806;2023-09-08T14:48:19;4.78;;;4.35;;
11018;SDS011;5563;52.296;6.806;2023-09-08T14:50:53;5.32;;;4.82;;
11018;SDS011;5563;52.296;6.806;2023-09-08T14:53:21;4.78;;;4.25;;
11018;SDS011;5563;52.296;6.806;2023-09-08T14:55:54;5.07;;;4.57;;
11018;SDS011;5563;52.296;6.806;2023-09-08T14:58:24;5.25;;;4.65;;
11018;SDS011;5563;52.296;6.806;2023-09-08T15:00:58;4.95;;;4.55;;
11018;SDS011;5563;52.296;6.806;2023-09-08T15:03:30;5.13;;;4.72;;
11018;SDS011;5563;52.296;6.806;2023-09-08T15:06:04;5.65;;;4.75;;
11018;SDS011;5563;52.296;6.806;2023-09-08T15:08:33;6.30;;;4.43;;
11018;SDS011;5563;52.296;6.806;2023-09-08T15:11:06;5.57;;;4.72;;
11018;SDS011;5563;52.296;6.806;2023-09-08T15:13:39;4.57;;;4.15;;
11018;SDS011;5563;52.296;6.806;2023-09-08T15:16:06;5.07;;;4.20;;
11018;SDS011;5563;52.296;6.806;2023-09-08T15:18:39;5.72;;;4.63;;
11018;SDS011;5563;52.296;6.806;2023-09-08T15:21:12;5.88;;;4.70;;
11018;SDS011;5563;52.296;6.806;2023-09-08T15:23:45;5.53;;;4.82;;
11018;SDS011;5563;52.296;6.806;2023-09-08T15:26:12;5.10;;;4.63;;
11018;SDS011;5563;52.296;6.806;2023-09-08T15:28:46;4.97;;;4.47;;
11018;SDS011;5563;52.296;6.806;2023-09-08T15:31:15;5.80;;;4.63;;
11018;SDS011;5563;52.296;6.806;2023-09-08T15:33:49;5.22;;;4.63;;